Latest Weather Observations for Holmes Reef

IDQ60801

Issued at 4:21 am EST Monday 19 November 2018 (issued every 10 minutes, with the page automatically refreshed every 10 minutes)

About weather observations | Map of weather stations | Latest weather observations for QLD | Other Formats
Station Details ID: 200732 Name: HOLMES REEF Lat: -16.47 Lon: 147.87 Height: 1.9 m
Data from the previous 72 hours. | See also: Recent months at Holmes Reef
Date/Time
EST
Temp
°C
App
Temp
°C
Dew
Point
°C
Rel
Hum
%
Delta-T
°C
Wind Press
QNH
hPa
Press
MSL
hPa
Rain since
9am
mm
Dir  Spd
km/h
Gust
km/h
Spd
kts
Gust
kts
19/04:15am 26.2 - - - - E 30 - 16 - - 1010.7 -
19/04:00am 26.4 - - - - ESE 28 32 15 17 1010.9 - -
19/03:30am 26.4 - - - - ESE 28 33 15 18 1010.7 - -
19/03:15am 26.5 - - - - ESE 30 - 16 - - 1010.4 -
19/03:00am 26.7 - - - - ESE 26 30 14 16 1010.7 - -
19/02:30am 26.3 - - - - ESE 26 30 14 16 1010.8 - -
19/02:15am 26.5 - - - - ESE 28 - 15 - - 1010.6 -
19/02:00am 26.4 - - - - ESE 28 32 15 17 1011.0 - -
19/01:30am 26.5 - - - - E 26 30 14 16 1011.3 - -
19/01:15am 26.5 - - - - ESE 24 - 13 - - 1011.1 -
19/01:00am 26.6 - - - - ESE 20 26 11 14 1011.6 - -
19/12:30am 26.7 - - - - ESE 22 28 12 15 1012.0 - -
19/12:15am 26.5 - - - - E 24 - 13 - - 1012.0 -
19/12:00am 26.7 - - - - E 26 30 14 16 1012.5 - -
 
Date/Time
EST
Temp
°C
App
Temp
°C
Dew
Point
°C
Rel
Hum
%
Delta-T
°C
Wind Press
QNH
hPa
Press
MSL
hPa
Rain since
9am
mm
Dir  Spd
km/h
Gust
km/h
Spd
kts
Gust
kts
18/11:30pm 26.6 - - - - E 24 28 13 15 1012.8 - -
18/11:15pm 26.8 - - - - E 26 - 14 - - 1012.7 -
18/11:00pm 26.6 - - - - ESE 26 30 14 16 1013.1 - -
18/10:30pm 26.7 - - - - E 26 30 14 16 1013.2 - -
18/10:15pm 26.6 - - - - ESE 26 - 14 - - 1012.8 -
18/10:00pm 26.7 - - - - ESE 26 30 14 16 1013.0 - -
18/09:30pm 26.9 - - - - ESE 28 32 15 17 1012.8 - -
18/09:15pm 26.5 - - - - ESE 30 - 16 - - 1012.5 -
18/09:00pm 26.5 - - - - ESE 30 33 16 18 1012.7 - -
18/08:30pm 26.7 - - - - ESE 28 33 15 18 1012.5 - -
18/08:15pm 26.6 - - - - ESE 30 - 16 - - 1012.2 -
18/08:00pm 26.8 - - - - ESE 30 33 16 18 1012.4 - -
18/07:30pm 26.6 - - - - ESE 32 35 17 19 1012.1 - -
18/07:15pm 26.8 - - - - ESE 28 - 15 - - 1011.7 -
18/07:00pm 26.9 - - - - ESE 26 30 14 16 1011.9 - -
18/06:30pm 26.9 - - - - ESE 28 32 15 17 1011.6 - -
18/06:15pm 26.9 - - - - ESE 26 - 14 - - 1011.2 -
18/06:00pm 26.6 - - - - ESE 26 33 14 18 1011.5 - -
18/05:30pm 26.9 - - - - SE 24 30 13 16 1011.2 - -
18/05:15pm 27.1 - - - - SE 22 - 12 - - 1010.8 -
18/05:00pm 26.9 - - - - SE 24 28 13 15 1011.0 - -
18/04:30pm 27.1 - - - - ESE 22 28 12 15 1010.8 - -
18/04:15pm 27.0 - - - - ESE 24 - 13 - - 1010.4 -
18/04:00pm 27.0 - - - - ESE 24 28 13 15 1010.6 - -
18/03:30pm 27.2 - - - - SE 24 30 13 16 1010.6 - -
18/03:15pm 26.8 - - - - SE 24 - 13 - - 1010.3 -
18/03:00pm 27.1 - - - - ESE 24 30 13 16 1010.6 - -
18/02:30pm 26.9 - - - - SE 24 30 13 16 1010.5 - -
18/02:15pm 26.9 - - - - ESE 24 - 13 - - 1010.3 -
18/02:00pm 26.7 - - - - ESE 24 28 13 15 1010.6 - -
18/01:30pm 26.7 - - - - ESE 24 30 13 16 1011.0 - -
18/01:15pm 26.9 - - - - ESE 26 - 14 - - 1010.9 -
18/01:00pm 26.7 - - - - SE 26 30 14 16 1011.4 - -
18/12:30pm 26.9 - - - - SE 26 30 14 16 1011.8 - -
18/12:15pm 26.8 - - - - SE 26 - 14 - - 1011.6 -
18/12:00pm 26.8 - - - - SE 28 33 15 18 1012.0 - -
18/11:30am 26.8 - - - - ESE 28 33 15 18 1012.2 - -
18/11:15am 26.7 - - - - ESE 30 - 16 - - 1011.9 -
18/11:00am 26.8 - - - - ESE 30 33 16 18 1012.3 - -
18/10:30am 27.0 - - - - ESE 28 33 15 18 1012.6 - -
18/10:15am 26.9 - - - - ESE 28 - 15 - - 1012.4 -
18/10:00am 27.0 - - - - ESE 28 32 15 17 1012.7 - -
18/09:30am 26.8 - - - - ESE 28 33 15 18 1012.7 - -
18/09:15am 26.5 - - - - ESE 30 - 16 - - 1012.5 -
18/09:00am 26.6 - - - - ESE 28 32 15 17 1012.8 - -
18/08:30am 26.7 - - - - ESE 28 33 15 18 1012.7 - -
18/08:15am 26.8 - - - - ESE 28 - 15 - - 1012.4 -
18/08:00am 26.7 - - - - SE 26 32 14 17 1012.6 - -
18/07:30am 26.4 - - - - SE 26 30 14 16 1012.3 - -
18/07:15am 26.5 - - - - SE 28 - 15 - - 1011.7 -
18/07:00am 26.4 - - - - SE 26 32 14 17 1011.9 - -
18/06:30am 26.5 - - - - SE 30 35 16 19 1011.6 - -
18/06:15am 26.4 - - - - SE 28 - 15 - - 1011.1 -
18/06:00am 26.1 - - - - SE 28 33 15 18 1011.3 - -
18/05:30am 26.2 - - - - SE 30 35 16 19 1010.9 - -
18/05:15am 26.3 - - - - SE 30 - 16 - - 1010.5 -
18/05:00am 26.0 - - - - SE 30 35 16 19 1010.7 - -
18/04:30am 26.3 - - - - SE 30 35 16 19 1010.4 - -
18/04:15am 26.2 - - - - SE 30 - 16 - - 1009.9 -
18/04:00am 26.3 - - - - SE 30 32 16 17 1010.1 - -
18/03:30am 26.1 - - - - SE 26 32 14 17 1010.0 - -
18/03:15am 26.4 - - - - ESE 28 - 15 - - 1009.8 -
18/03:00am 26.2 - - - - SE 26 30 14 16 1010.1 - -
18/02:30am 26.1 - - - - ESE 24 32 13 17 1010.1 - -
18/02:15am 25.8 - - - - SE 24 - 13 - - 1010.0 -
18/02:00am 26.4 - - - - ESE 24 35 13 19 1010.3 - -
18/01:30am 26.3 - - - - ESE 26 30 14 16 1010.6 - -
18/01:15am 26.1 - - - - SE 28 - 15 - - 1010.4 -
18/01:00am 26.1 - - - - ESE 28 32 15 17 1010.9 - -
18/12:30am 26.4 - - - - ESE 28 32 15 17 1011.1 - -
18/12:15am 26.7 - - - - SE 28 - 15 - - 1011.1 -
18/12:00am 26.4 - - - - SE 28 33 15 18 1011.4 - -
 
Date/Time
EST
Temp
°C
App
Temp
°C
Dew
Point
°C
Rel
Hum
%
Delta-T
°C
Wind Press
QNH
hPa
Press
MSL
hPa
Rain since
9am
mm
Dir  Spd
km/h
Gust
km/h
Spd
kts
Gust
kts
17/11:30pm 26.4 - - - - SE 28 32 15 17 1011.7 - -
17/11:15pm 26.3 - - - - SE 28 - 15 - - 1011.6 -
17/11:00pm 26.3 - - - - SE 28 33 15 18 1012.0 - -
17/10:30pm 26.5 - - - - SE 30 33 16 18 1012.2 - -
17/10:15pm 26.6 - - - - ESE 30 - 16 - - 1012.0 -
17/10:00pm 26.4 - - - - SE 28 32 15 17 1012.3 - -
17/09:30pm 26.5 - - - - SE 26 30 14 16 1012.4 - -
17/09:15pm 26.4 - - - - ESE 28 - 15 - - 1012.1 -
17/08:15pm 26.5 - - - - SE 24 - 13 - - 1011.9 -
17/08:00pm 26.5 - - - - SE 24 28 13 15 1012.0 - -
17/07:30pm 26.5 - - - - SE 26 30 14 16 1011.8 - -
17/07:15pm 26.7 - - - - SE 24 - 13 - - 1011.3 -
17/06:15pm 26.5 - - - - SE 22 - 12 - - 1010.8 -
17/05:15pm 27.3 - - - - SSE 20 - 11 - - 1010.6 -
17/04:15pm 26.7 - - - - SSE 22 - 12 - - 1010.3 -
17/03:15pm 26.5 - - - - SE 22 - 12 - - 1010.1 -
17/02:15pm 26.6 - - - - SE 20 - 11 - - 1010.7 -
17/01:15pm 26.6 - - - - SE 22 - 12 - - 1011.3 -
17/12:15pm 26.6 - - - - SE 24 - 13 - - 1011.9 -
17/11:15am 26.5 - - - - SE 26 - 14 - - 1012.5 -
17/11:00am 26.7 - - - - SE 24 28 13 15 1013.0 - -
17/10:30am 26.7 - - - - ESE 24 30 13 16 1013.2 - -
17/10:15am 26.7 - - - - ESE 24 - 13 - - 1013.0 -
17/10:00am 26.6 - - - - SE 22 28 12 15 1013.4 - -
17/09:30am 26.7 - - - - ESE 24 26 13 14 1013.4 - -
17/09:15am 26.7 - - - - ESE 24 - 13 - - 1013.2 -
17/09:00am 26.7 - - - - ESE 22 28 12 15 1013.4 - -
17/08:30am 26.8 - - - - ESE 24 30 13 16 1013.4 - -
17/08:15am 26.6 - - - - ESE 24 - 13 - - 1013.1 -
17/08:00am 26.6 - - - - ESE 24 28 13 15 1013.3 - -
17/07:30am 26.6 - - - - E 24 28 13 15 1013.0 - -
17/07:15am 26.4 - - - - ESE 28 - 15 - - 1012.5 -
17/07:00am 26.4 - - - - ESE 26 30 14 16 1012.6 - -
17/06:30am 26.1 - - - - ESE 30 33 16 18 1012.2 - -
17/06:15am 26.2 - - - - ESE 28 - 15 - - 1011.8 -
17/06:00am 26.2 - - - - SE 22 30 12 16 1012.0 - -
17/05:30am 26.1 - - - - ESE 24 30 13 16 1011.8 - -
17/05:15am 25.9 - - - - ESE 26 - 14 - - 1011.4 -
17/05:00am 25.9 - - - - ESE 26 30 14 16 1011.6 - -
17/04:15am 25.9 - - - - ESE 24 - 13 - - 1011.1 -
17/04:00am 25.9 - - - - ESE 24 30 13 16 1011.4 - -
17/03:30am 26.0 - - - - ESE 26 32 14 17 1011.2 - -
17/03:15am 26.0 - - - - ESE 26 - 14 - - 1010.9 -
17/03:00am 26.0 - - - - E 28 33 15 18 1011.0 - -
17/02:30am 26.0 - - - - E 30 35 16 19 1010.9 - -
17/02:15am 26.1 - - - - E 32 - 17 - - 1010.7 -
17/02:00am 26.1 - - - - E 33 37 18 20 1011.1 - -
17/01:30am 25.9 - - - - ESE 22 35 12 19 1011.4 - -
17/01:15am 25.5 - - - - ESE 28 - 15 - - 1011.3 -
17/01:00am 26.2 - - - - ESE 24 28 13 15 1011.7 - -
17/12:30am 26.2 - - - - E 22 28 12 15 1012.1 - -
17/12:15am 26.4 - - - - E 28 - 15 - - 1012.0 -
17/12:00am 26.2 - - - - E 30 35 16 19 1012.4 - -
 
Date/Time
EST
Temp
°C
App
Temp
°C
Dew
Point
°C
Rel
Hum
%
Delta-T
°C
Wind Press
QNH
hPa
Press
MSL
hPa
Rain since
9am
mm
Dir  Spd
km/h
Gust
km/h
Spd
kts
Gust
kts
16/11:30pm 26.5 - - - - E 32 37 17 20 1012.7 - -
16/11:15pm 26.5 - - - - ESE 32 - 17 - - 1012.5 -
16/11:00pm 26.4 - - - - ESE 35 39 19 21 1012.9 - -
16/10:30pm 26.6 - - - - ESE 35 39 19 21 1013.1 - -
16/10:15pm 26.7 - - - - ESE 35 - 19 - - 1012.8 -
16/10:00pm 26.6 - - - - ESE 35 41 19 22 1013.1 - -
16/09:30pm 26.5 - - - - ESE 37 43 20 23 1013.1 - -
16/09:15pm 26.6 - - - - ESE 37 - 20 - - 1012.7 -
16/09:00pm 26.7 - - - - SE 32 39 17 21 1012.9 - -
16/08:30pm 26.6 - - - - SE 30 35 16 19 1012.8 - -
16/08:15pm 26.4 - - - - SE 32 - 17 - - 1012.5 -
16/08:00pm 26.5 - - - - SE 30 35 16 19 1012.8 - -
16/07:30pm 26.4 - - - - ESE 33 35 18 19 1012.7 - -
16/07:15pm 26.8 - - - - SE 30 - 16 - - 1012.1 -
16/07:00pm 26.6 - - - - SE 33 39 18 21 1012.2 - -
16/06:30pm 26.5 - - - - SE 30 35 16 19 1012.0 - -
16/06:15pm 26.5 - - - - SE 32 - 17 - - 1011.6 -
16/06:00pm 26.7 - - - - SE 30 35 16 19 1011.8 - -
16/05:30pm 26.6 - - - - SE 30 33 16 18 1011.5 - -
16/05:15pm 26.5 - - - - SE 30 - 16 - - 1011.0 -
16/05:00pm 26.6 - - - - SE 30 33 16 18 1011.1 - -
16/04:30pm 26.7 - - - - SE 30 33 16 18 1010.9 - -
16/04:15pm 26.6 - - - - SE 28 - 15 - - 1010.5 -
16/04:00pm 26.6 - - - - SE 26 32 14 17 1010.8 - -
16/03:30pm 26.7 - - - - SE 28 32 15 17 1010.9 - -
16/03:15pm 26.9 - - - - SE 26 - 14 - - 1010.6 -
16/03:00pm 26.7 - - - - SE 26 32 14 17 1011.0 - -
16/02:30pm 26.6 - - - - SSE 26 32 14 17 1011.3 - -
16/02:15pm 26.8 - - - - SSE 26 - 14 - - 1011.2 -
16/02:00pm 27.0 - - - - SE 26 32 14 17 1011.6 - -
16/01:30pm 26.8 - - - - SE 26 30 14 16 1012.0 - -
16/01:15pm 26.8 - - - - SSE 26 - 14 - - 1011.9 -
16/01:00pm 26.8 - - - - SE 26 30 14 16 1012.4 - -
16/12:30pm 26.6 - - - - SE 26 30 14 16 1012.8 - -
16/12:15pm 26.8 - - - - SE 24 - 13 - - 1012.8 -
16/12:00pm 26.7 - - - - SE 24 32 13 17 1013.3 - -
16/11:30am 26.7 - - - - SE 24 30 13 16 1013.7 - -
16/11:15am 26.9 - - - - SE 24 - 13 - - 1013.5 -
16/11:00am 26.6 - - - - SE 26 30 14 16 1014.0 - -
16/10:30am 26.8 - - - - SE 26 30 14 16 1014.2 - -
16/10:15am 26.8 - - - - SE 26 - 14 - - 1013.9 -
16/10:00am 26.7 - - - - SE 26 30 14 16 1014.2 - -
16/09:30am 26.8 - - - - SE 26 30 14 16 1014.2 - -
16/09:15am 26.7 - - - - SE 24 - 13 - - 1014.0 -
16/09:00am 26.7 - - - - SE 26 30 14 16 1014.3 - -
16/08:30am 26.7 - - - - ESE 26 32 14 17 1014.3 - -
16/08:15am 26.8 - - - - ESE 26 - 14 - - 1014.0 -
16/08:00am 27.1 - - - - ESE 26 32 14 17 1014.2 - -
16/07:30am 26.9 - - - - ESE 28 33 15 18 1014.0 - -
16/07:15am 26.8 - - - - ESE 24 - 13 - - 1013.7 -
16/07:00am 26.7 - - - - ESE 24 28 13 15 1013.9 - -
16/06:30am 26.9 - - - - ESE 24 30 13 16 1013.4 - -
16/06:15am 26.5 - - - - ESE 24 - 13 - - 1013.0 -
16/06:00am 26.3 - - - - ESE 24 30 13 16 1013.3 - -
16/05:30am 26.4 - - - - ESE 22 28 12 15 1013.1 - -
16/05:15am 26.1 - - - - E 26 - 14 - - 1012.8 -
16/05:00am 26.1 - - - - E 24 30 13 16 1013.0 - -
16/04:30am 26.3 - - - - E 28 33 15 18 1012.7 - -

Other Formats:

Comma delimited format used in spreadsheet applications
http://www.bom.gov.au/fwo/IDQ60801/IDQ60801.94289.axf

JavaScript Object Notation format (JSON) in row-major order
http://www.bom.gov.au/fwo/IDQ60801/IDQ60801.94289.json